Time;durP1;ratioP1;P1;durP2;ratioP2;P2;SDS_P1;SDS_P2;PMS_P1;PMS_P2;Temp;Humidity;BMP_temperature;BMP_pressure;BME280_temperature;BME280_humidity;BME280_pressure;Samples;Min_cycle;Max_cycle;Signal;HPM_P1;HPM_P2
2023/03/23 00:01:51;;;;;;;6.72;2.67;;;;;;;13.03;100.00;100183.88;5028670;28;20394;-65
2023/03/23 00:04:17;;;;;;;8.27;3.13;;;;;;;13.02;100.00;100164.53;5027614;28;20490;-64
2023/03/23 00:06:45;;;;;;;4.43;2.58;;;;;;;12.99;100.00;100159.41;5026365;28;20534;-64
2023/03/23 00:09:14;;;;;;;6.68;3.28;;;;;;;12.98;100.00;100162.97;5010969;28;20056;-66
2023/03/23 00:11:41;;;;;;;8.57;2.55;;;;;;;12.95;100.00;100155.22;5027946;28;20103;-65
2023/03/23 00:14:12;;;;;;;7.93;2.58;;;;;;;13.01;100.00;100167.25;5009216;28;20032;-65
2023/03/23 00:16:40;;;;;;;6.50;2.28;;;;;;;13.01;100.00;100164.63;5028339;28;20053;-64
2023/03/23 00:19:08;;;;;;;3.75;2.30;;;;;;;13.05;100.00;100152.91;5027439;28;20021;-66
2023/03/23 00:21:35;;;;;;;6.93;2.83;;;;;;;13.06;100.00;100149.31;5008361;28;20029;-66
2023/03/23 00:24:12;;;;;;;5.95;2.70;;;;;;;12.95;100.00;100155.22;5028345;28;20084;-66
2023/03/23 00:26:40;;;;;;;7.82;2.50;;;;;;;13.02;100.00;100139.88;5027042;28;20029;-64
2023/03/23 00:29:08;;;;;;;6.82;2.20;;;;;;;13.09;100.00;100143.88;5026727;28;20065;-66
2023/03/23 00:31:35;;;;;;;8.25;2.63;;;;;;;13.04;100.00;100132.72;5010541;28;20029;-66
2023/03/23 00:34:03;;;;;;;7.72;2.50;;;;;;;12.99;100.00;100140.03;5009022;28;20037;-65
2023/03/23 00:36:30;;;;;;;5.82;2.60;;;;;;;13.08;100.00;100131.59;5026506;28;20454;-65
2023/03/23 00:38:59;;;;;;;6.50;2.15;;;;;;;12.99;100.00;100127.69;5028065;28;20079;-66
2023/03/23 00:41:26;;;;;;;;;;;;;;;13.02;100.00;100122.22;5027587;28;20035;-65
2023/03/23 00:43:53;;;;;;;7.25;2.30;;;;;;;13.03;100.00;100123.06;5026389;28;19921;-65
2023/03/23 00:46:20;;;;;;;7.65;2.53;;;;;;;12.92;100.00;100109.59;5027140;28;20029;-64
2023/03/23 00:48:46;;;;;;;8.45;2.58;;;;;;;12.86;100.00;100114.25;5026345;28;20536;-65
2023/03/23 00:51:12;;;;;;;3.40;1.88;;;;;;;12.95;100.00;100127.94;5026555;28;20025;-66
2023/03/23 00:53:39;;;;;;;6.60;2.47;;;;;;;12.90;100.00;100101.72;5027252;28;20057;-66
2023/03/23 00:56:05;;;;;;;4.15;2.28;;;;;;;12.80;100.00;100117.28;5025775;28;20028;-64
2023/03/23 00:58:30;;;;;;;5.22;1.90;;;;;;;12.84;100.00;100137.31;5026507;28;20026;-64
2023/03/23 01:00:56;;;;;;;10.20;2.28;;;;;;;12.86;100.00;100121.34;5027750;28;20102;-65
2023/03/23 01:03:25;;;;;;;6.68;2.28;;;;;;;12.83;100.00;100122.38;5026192;28;20123;-64
2023/03/23 01:05:51;;;;;;;6.80;2.38;;;;;;;12.89;100.00;100124.66;5025388;28;20033;-65
2023/03/23 01:08:18;;;;;;;7.25;2.00;;;;;;;12.79;100.00;100120.81;5009313;28;20067;-64
2023/03/23 01:10:44;;;;;;;5.90;2.40;;;;;;;12.82;100.00;100115.38;5026577;28;20075;-65
2023/03/23 01:13:09;;;;;;;6.40;2.58;;;;;;;12.95;100.00;100098.84;5025249;28;20021;-65
2023/03/23 01:15:35;;;;;;;8.23;2.15;;;;;;;12.85;100.00;100094.06;5026816;28;20025;-65
2023/03/23 01:18:00;;;;;;;4.55;2.08;;;;;;;12.86;100.00;100079.88;5026276;28;20108;-66
2023/03/23 01:20:31;;;;;;;6.03;2.00;;;;;;;12.85;100.00;100088.78;5025284;28;20033;-64
2023/03/23 01:23:00;;;;;;;5.82;2.47;;;;;;;12.81;100.00;100087.25;5027258;28;20775;-65
2023/03/23 01:25:29;;;;;;;7.72;2.83;;;;;;;12.86;100.00;100090.47;5026300;28;20025;-66
2023/03/23 01:27:54;;;;;;;;;;;;;;;12.90;100.00;100080.59;5026179;28;20132;-64
2023/03/23 01:30:20;;;;;;;6.40;2.30;;;;;;;12.76;100.00;100076.06;5026268;28;20380;-64
2023/03/23 01:32:45;;;;;;;5.00;2.13;;;;;;;12.72;100.00;100082.44;5007905;28;20496;-65
2023/03/23 01:35:12;;;;;;;5.47;2.17;;;;;;;12.74;100.00;100093.81;5025026;28;20489;-64
2023/03/23 01:37:38;;;;;;;7.25;2.15;;;;;;;12.79;100.00;100067.97;5027261;28;20474;-65
2023/03/23 01:40:04;;;;;;;4.40;1.90;;;;;;;12.83;100.00;100085.38;5025790;28;20028;-64
2023/03/23 01:42:32;;;;;;;5.38;2.10;;;;;;;12.77;100.00;100069.84;5025763;28;20043;-66
2023/03/23 01:45:20;;;;;;;5.30;2.20;;;;;;;12.74;100.00;100088.53;5026780;28;20022;-66
2023/03/23 01:47:51;;;;;;;3.72;1.70;;;;;;;12.80;100.00;100074.09;5023515;28;20449;-66
2023/03/23 01:50:17;;;;;;;5.88;1.92;;;;;;;12.76;100.00;100062.84;5025983;28;20085;-65
2023/03/23 01:52:43;;;;;;;5.28;2.30;;;;;;;12.85;100.00;100057.03;5008485;28;20025;-65
2023/03/23 01:55:08;;;;;;;7.75;2.08;;;;;;;12.80;100.00;100072.31;5007097;28;20036;-66
2023/03/23 01:57:34;;;;;;;2.50;1.85;;;;;;;12.69;100.00;100051.78;5008975;28;20035;-67
2023/03/23 02:00:14;;;;;;;3.22;2.10;;;;;;;12.73;100.00;100052.44;5024742;28;20101;-65
2023/03/23 02:02:41;;;;;;;7.85;2.28;;;;;;;12.69;100.00;100058.84;5010489;28;20083;-65
2023/03/23 02:05:11;;;;;;;9.18;2.05;;;;;;;12.78;100.00;100066.25;5024236;28;20056;-65
2023/03/23 02:07:37;;;;;;;4.38;2.00;;;;;;;12.72;100.00;100062.16;5026196;28;20160;-65
2023/03/23 02:10:03;;;;;;;2.92;1.90;;;;;;;12.53;100.00;100064.97;5088343;22;20144;-64
2023/03/23 02:12:28;;;;;;;3.97;2.10;;;;;;;12.54;100.00;100069.31;5026052;28;20108;-67
2023/03/23 02:14:53;;;;;;;2.28;1.70;;;;;;;12.58;100.00;100064.72;5007859;28;20800;-65
2023/03/23 02:17:39;;;;;;;5.35;2.20;;;;;;;12.66;100.00;100066.94;5026328;28;20053;-65
2023/03/23 02:20:18;;;;;;;6.25;1.80;;;;;;;12.47;100.00;100057.38;5006150;28;20025;-64
2023/03/23 02:23:02;;;;;;;9.85;2.45;;;;;;;12.55;100.00;100078.94;5005644;28;20033;-65
2023/03/23 02:26:06;;;;;;;7.65;2.05;;;;;;;12.52;100.00;100055.31;5005901;28;20030;-65
2023/03/23 02:28:54;;;;;;;3.75;2.00;;;;;;;12.60;100.00;100068.13;5010857;28;20034;-66
2023/03/23 02:31:41;;;;;;;9.70;2.08;;;;;;;12.63;100.00;100046.81;4988488;28;20081;-65
2023/03/23 02:34:20;;;;;;;2.80;1.75;;;;;;;12.56;100.00;100070.09;5022423;28;20029;-65
2023/03/23 02:36:46;;;;;;;4.25;2.03;;;;;;;12.63;100.00;100063.53;5024583;28;20104;-66
2023/03/23 02:39:51;;;;;;;4.05;2.03;;;;;;;12.66;100.00;100044.00;5022871;28;20026;-65
2023/03/23 02:42:37;;;;;;;4.85;1.98;;;;;;;12.59;100.00;100056.72;4984282;28;20524;-65
2023/03/23 02:45:04;;;;;;;5.55;2.20;;;;;;;12.60;100.00;100052.28;5009239;28;20426;-65
2023/03/23 02:47:31;;;;;;;5.72;2.63;;;;;;;12.66;100.00;100051.94;5009211;28;20033;-68
2023/03/23 02:49:58;;;;;;;4.78;2.13;;;;;;;12.61;100.00;100064.53;5024841;28;20018;-65
2023/03/23 02:52:27;;;;;;;2.83;1.38;;;;;;;12.53;100.00;100051.78;5007795;28;20116;-65
2023/03/23 02:54:54;;;;;;;4.93;1.95;;;;;;;12.48;100.00;100072.28;5007733;28;20022;-65
2023/03/23 02:57:20;;;;;;;8.45;1.92;;;;;;;12.58;100.00;100064.72;4989147;28;20504;-64
2023/03/23 02:59:46;;;;;;;5.68;1.80;;;;;;;12.55;100.00;100052.53;4991796;28;20188;-65
2023/03/23 03:02:40;;;;;;;6.03;2.00;;;;;;;12.62;100.00;100048.59;5007779;28;20482;-66
2023/03/23 03:05:37;;;;;;;5.32;1.80;;;;;;;12.63;100.00;100044.16;5010890;28;20095;-65
2023/03/23 03:08:03;;;;;;;2.75;1.70;;;;;;;12.59;100.00;100062.00;4975765;28;20342;-64
2023/03/23 03:10:37;;;;;;;4.93;2.00;;;;;;;12.68;100.00;100054.50;5022920;28;20068;-67
2023/03/23 03:13:08;;;;;;;6.10;2.13;;;;;;;12.66;100.00;100054.56;5028413;28;20116;-65
2023/03/23 03:15:42;;;;;;;7.50;2.00;;;;;;;12.69;100.00;100045.63;5021962;28;20025;-65
2023/03/23 03:18:25;;;;;;;4.68;2.08;;;;;;;12.63;100.00;100054.75;5011025;28;20032;-66
2023/03/23 03:20:54;;;;;;;4.40;1.95;;;;;;;12.58;100.00;100048.88;5027285;28;20762;-65
2023/03/23 03:23:22;;;;;;;2.72;1.77;;;;;;;12.65;100.00;100066.09;5023204;28;20029;-68
2023/03/23 03:25:48;;;;;;;7.25;1.90;;;;;;;12.62;100.00;100045.94;5028850;28;20027;-66
2023/03/23 03:28:21;;;;;;;5.10;2.08;;;;;;;12.47;100.00;100062.66;5010592;28;20029;-66
2023/03/23 03:30:49;;;;;;;6.10;2.35;;;;;;;12.38;100.00;100059.56;5008775;28;20026;-65
2023/03/23 03:33:15;;;;;;;5.28;2.28;;;;;;;12.33;100.00;100056.34;4991086;28;20026;-66
2023/03/23 03:35:41;;;;;;;3.90;2.28;;;;;;;12.26;100.00;100054.97;5015205;28;20013;-65
2023/03/23 03:38:10;;;;;;;8.50;2.17;;;;;;;12.19;100.00;100085.28;5011707;28;20022;-65
2023/03/23 03:40:36;;;;;;;2.70;2.00;;;;;;;12.06;100.00;100070.03;5010544;28;20088;-65
2023/03/23 03:43:02;;;;;;;3.85;2.35;;;;;;;11.94;100.00;100054.84;5023455;28;20836;-64
2023/03/23 03:45:27;;;;;;;12.63;2.50;;;;;;;11.91;100.00;100055.00;5029381;28;20038;-64
2023/03/23 03:47:52;;;;;;;6.57;2.17;;;;;;;11.76;100.00;100065.41;5027758;28;20029;-66
2023/03/23 03:50:18;;;;;;;7.07;2.80;;;;;;;11.72;100.00;100079.72;5016931;28;20040;-66
2023/03/23 03:52:43;;;;;;;7.18;2.25;;;;;;;11.78;100.00;100066.22;5009582;28;20034;-66
2023/03/23 03:55:09;;;;;;;7.70;2.65;;;;;;;11.73;100.00;100082.28;5008212;28;20044;-64
2023/03/23 03:57:35;;;;;;;8.65;2.53;;;;;;;11.67;100.00;100064.13;5019723;28;20040;-63
2023/03/23 04:00:04;;;;;;;8.07;2.97;;;;;;;11.68;100.00;100052.63;5028424;28;20025;-62
2023/03/23 04:02:29;;;;;;;9.25;2.58;;;;;;;11.70;100.00;100058.69;5028015;28;20033;-62
2023/03/23 04:04:54;;;;;;;8.88;2.17;;;;;;;11.69;100.00;100053.47;5022648;28;20111;-62
2023/03/23 04:07:21;;;;;;;6.50;2.45;;;;;;;11.64;100.00;100069.53;5028319;28;20033;-65
2023/03/23 04:09:47;;;;;;;6.13;2.60;;;;;;;11.60;100.00;100062.72;5026621;28;20045;-63
2023/03/23 04:12:14;;;;;;;10.23;2.38;;;;;;;11.68;100.00;100054.41;5016490;28;20029;-63
2023/03/23 04:14:39;;;;;;;9.55;2.95;;;;;;;11.74;100.00;100064.66;5008272;28;20022;-61
2023/03/23 04:17:06;;;;;;;10.48;2.55;;;;;;;11.78;100.00;100050.38;5007372;28;20339;-65
2023/03/23 04:19:33;;;;;;;7.63;2.67;;;;;;;11.76;100.00;100065.41;4993313;28;20079;-63
2023/03/23 04:21:59;;;;;;;13.85;2.42;;;;;;;11.85;100.00;100083.44;5007659;28;20029;-66
2023/03/23 04:24:24;;;;;;;11.10;2.30;;;;;;;11.90;100.00;100091.13;5009380;28;20030;-61
2023/03/23 04:26:51;;;;;;;6.10;2.10;;;;;;;11.89;100.00;100099.94;5024166;28;20026;-64
2023/03/23 04:29:17;;;;;;;5.43;1.67;;;;;;;12.00;100.00;100087.06;5009134;28;20068;-62
2023/03/23 04:31:44;;;;;;;9.73;1.92;;;;;;;11.98;100.00;100088.91;5025652;28;20473;-62
2023/03/23 04:34:13;;;;;;;11.00;2.33;;;;;;;12.00;100.00;100097.63;5024206;28;20021;-63
2023/03/23 04:36:38;;;;;;;11.20;2.73;;;;;;;12.06;100.00;100104.38;5026693;28;20033;-61
2023/03/23 04:39:06;;;;;;;12.55;1.98;;;;;;;12.08;100.00;100094.63;5023305;28;20028;-61
2023/03/23 04:41:32;;;;;;;8.07;2.20;;;;;;;11.97;100.00;100107.47;5026464;28;20022;-61
2023/03/23 04:44:02;;;;;;;14.45;3.25;;;;;;;12.01;100.00;100124.88;5027088;28;20032;-63
2023/03/23 04:46:28;;;;;;;11.85;2.53;;;;;;;12.19;100.00;100122.25;5008081;28;20017;-65
2023/03/23 04:48:54;;;;;;;13.07;2.78;;;;;;;12.10;100.00;100150.84;5008306;28;20025;-65
2023/03/23 04:51:20;;;;;;;8.63;2.47;;;;;;;12.13;100.00;100120.78;5005957;28;20022;-63
2023/03/23 04:53:45;;;;;;;11.40;2.45;;;;;;;12.06;100.00;100112.28;4995634;28;20065;-63
2023/03/23 04:56:13;;;;;;;12.15;2.15;;;;;;;11.96;100.00;100104.00;5027214;28;20083;-62
2023/03/23 04:58:39;;;;;;;9.63;2.25;;;;;;;11.85;100.00;100119.53;5007872;28;20544;-62
2023/03/23 05:01:04;;;;;;;7.97;2.45;;;;;;;12.01;100.00;100098.47;5021621;28;20069;-63
2023/03/23 05:03:30;;;;;;;11.60;2.58;;;;;;;12.06;100.00;100122.84;5027416;28;20457;-65
2023/03/23 05:05:55;;;;;;;10.55;2.55;;;;;;;11.97;100.00;100129.47;5025455;28;20029;-64
2023/03/23 05:08:22;;;;;;;10.75;2.20;;;;;;;11.90;100.00;100133.34;5007678;28;20029;-63
2023/03/23 05:10:53;;;;;;;12.80;3.95;;;;;;;11.82;100.00;100135.50;5014090;28;20620;-64
2023/03/23 05:13:19;;;;;;;10.27;2.78;;;;;;;11.70;100.00;100121.16;5025601;28;20033;-64
2023/03/23 05:15:44;;;;;;;16.00;4.03;;;;;;;11.68;100.00;100130.94;5026222;28;20029;-63
2023/03/23 05:18:10;;;;;;;8.77;2.85;;;;;;;11.66;100.00;100132.78;5026832;28;20069;-64
2023/03/23 05:20:36;;;;;;;10.18;3.67;;;;;;;11.63;100.00;100136.47;5025716;28;20086;-63
2023/03/23 05:23:01;;;;;;;14.15;4.22;;;;;;;11.64;100.00;100138.16;5025697;28;20116;-64
2023/03/23 05:25:27;;;;;;;13.77;3.25;;;;;;;11.65;100.00;100123.19;5027041;28;20018;-64
2023/03/23 05:27:53;;;;;;;13.90;2.97;;;;;;;11.69;100.00;100135.28;5027033;28;20048;-65
2023/03/23 05:30:20;;;;;;;26.63;3.78;;;;;;;11.80;100.00;100148.78;5026187;28;20036;-64
2023/03/23 05:32:50;;;;;;;11.95;2.67;;;;;;;11.77;100.00;100137.56;5026914;28;20022;-64
2023/03/23 05:35:15;;;;;;;;;;;;;;;11.83;100.00;100145.16;5026297;28;21653;-63
2023/03/23 05:37:40;;;;;;;9.85;2.95;;;;;;;11.71;100.00;100152.75;5026653;28;19909;-63
2023/03/23 05:40:06;;;;;;;11.27;2.90;;;;;;;11.70;100.00;100155.47;5026266;28;20025;-64
2023/03/23 05:42:34;;;;;;;12.95;2.85;;;;;;;11.70;100.00;100163.38;5025246;28;20033;-63
2023/03/23 05:45:00;;;;;;;17.42;3.08;;;;;;;11.75;100.00;100156.94;5015522;28;20465;-66
2023/03/23 05:47:26;;;;;;;12.57;3.35;;;;;;;11.77;100.00;100153.38;5026754;28;20026;-66
2023/03/23 05:49:51;;;;;;;16.83;2.88;;;;;;;11.80;100.00;100167.25;5025134;28;20030;-63
2023/03/23 05:52:17;;;;;;;15.75;3.05;;;;;;;11.85;100.00;100169.69;5025041;28;20536;-67
2023/03/23 05:54:42;;;;;;;15.02;2.78;;;;;;;11.82;100.00;100164.56;5025572;28;20040;-66
2023/03/23 05:57:08;;;;;;;14.35;3.15;;;;;;;11.80;100.00;100162.00;5025016;28;20026;-63
2023/03/23 05:59:34;;;;;;;14.77;2.92;;;;;;;11.74;100.00;100162.31;5025533;28;20029;-63
2023/03/23 06:02:00;;;;;;;11.52;3.08;;;;;;;11.74;100.00;100171.06;5010966;28;20030;-65
2023/03/23 06:04:27;;;;;;;9.35;3.05;;;;;;;11.72;100.00;100175.59;5005908;28;20025;-64
2023/03/23 06:06:52;;;;;;;16.75;3.17;;;;;;;11.85;100.00;100182.88;5000491;28;20120;-64
2023/03/23 06:09:18;;;;;;;13.13;3.47;;;;;;;11.71;100.00;100188.88;5026129;28;20148;-64
2023/03/23 06:11:44;;;;;;;14.10;3.33;;;;;;;11.83;100.00;100179.47;5007944;28;20109;-66
2023/03/23 06:14:09;;;;;;;12.45;4.32;;;;;;;11.80;100.00;100184.91;5026452;28;20033;-64
2023/03/23 06:16:34;;;;;;;13.00;3.60;;;;;;;11.77;100.00;100191.16;5007830;28;20029;-63
2023/03/23 06:19:00;;;;;;;15.18;4.68;;;;;;;11.74;100.00;100215.09;5026569;28;20104;-65
2023/03/23 06:21:26;;;;;;;18.48;3.90;;;;;;;11.79;100.00;100197.25;5025062;28;20033;-64
2023/03/23 06:23:52;;;;;;;12.88;3.50;;;;;;;11.92;100.00;100210.69;5026685;28;20025;-65
2023/03/23 06:26:19;;;;;;;9.65;2.97;;;;;;;11.92;100.00;100205.41;5024923;28;20153;-64
2023/03/23 06:28:44;;;;;;;15.98;3.38;;;;;;;11.94;100.00;100197.41;5009187;28;20029;-65
2023/03/23 06:31:11;;;;;;;18.83;3.60;;;;;;;12.02;100.00;100200.53;5007748;28;20021;-65
2023/03/23 06:33:37;;;;;;;19.52;3.63;;;;;;;11.98;100.00;100209.53;5028511;28;20036;-65
2023/03/23 06:36:04;;;;;;;14.32;4.03;;;;;;;12.03;100.00;100218.06;5029156;28;20037;-65
2023/03/23 06:38:30;;;;;;;15.45;3.00;;;;;;;12.07;100.00;100211.72;5029789;28;20041;-65
2023/03/23 06:40:56;;;;;;;12.88;3.08;;;;;;;12.07;100.00;100203.81;5030471;28;20038;-65
2023/03/23 06:43:22;;;;;;;19.00;3.50;;;;;;;12.07;100.00;100214.38;5029209;28;20531;-66
2023/03/23 06:45:47;;;;;;;18.95;5.60;;;;;;;12.16;100.00;100207.75;5029522;28;20033;-65
2023/03/23 06:48:13;;;;;;;14.35;3.40;;;;;;;12.10;100.00;100218.66;5028537;28;20025;-65
2023/03/23 06:50:38;;;;;;;17.45;3.70;;;;;;;12.19;100.00;100227.91;5027804;28;20041;-65
2023/03/23 06:53:04;;;;;;;14.63;4.80;;;;;;;12.19;100.00;100219.97;5027240;28;20101;-67
2023/03/23 06:55:29;;;;;;;12.68;4.03;;;;;;;12.20;100.00;100226.97;5028542;28;20420;-64
2023/03/23 06:57:54;;;;;;;14.68;3.65;;;;;;;12.15;100.00;100227.19;5027912;28;20385;-65
2023/03/23 07:00:20;;;;;;;12.45;2.47;;;;;;;12.08;100.00;100221.38;5027833;28;20029;-65
2023/03/23 07:02:46;;;;;;;11.35;2.50;;;;;;;12.07;100.00;100216.19;5028173;28;20022;-64
2023/03/23 07:05:12;;;;;;;13.82;2.53;;;;;;;12.13;100.00;100218.47;5028336;28;20053;-68
2023/03/23 07:07:38;;;;;;;15.63;2.42;;;;;;;12.15;100.00;100223.69;5025680;28;20056;-64
2023/03/23 07:10:07;;;;;;;12.60;3.15;;;;;;;12.15;100.00;100226.31;5009906;28;20084;-65
2023/03/23 07:12:33;;;;;;;14.02;2.35;;;;;;;12.25;100.00;100238.13;5010263;28;20025;-66
2023/03/23 07:14:58;;;;;;;16.98;3.08;;;;;;;12.19;100.00;100234.03;5013717;28;20055;-67
2023/03/23 07:17:23;;;;;;;21.15;3.38;;;;;;;12.21;100.00;100226.03;5008882;28;20366;-66
2023/03/23 07:19:49;;;;;;;10.88;2.50;;;;;;;12.24;100.00;100233.78;5014794;28;20025;-68
2023/03/23 07:22:14;;;;;;;15.55;2.70;;;;;;;12.22;100.00;100238.31;5016991;28;20022;-64
2023/03/23 07:24:40;;;;;;;16.05;3.30;;;;;;;12.02;100.00;100248.06;5025237;28;20062;-65
2023/03/23 07:27:05;;;;;;;11.07;2.60;;;;;;;12.12;100.00;100254.63;5021898;28;20512;-64
2023/03/23 07:29:34;;;;;;;11.93;3.15;;;;;;;12.17;100.00;100235.03;5018539;28;20026;-65
2023/03/23 07:31:59;;;;;;;;;;;;;;;12.21;100.00;100233.94;5007902;28;20117;-67
2023/03/23 07:34:25;;;;;;;11.98;2.92;;;;;;;12.20;100.00;100242.81;5007106;28;20028;-63
2023/03/23 07:36:50;;;;;;;14.82;2.65;;;;;;;12.19;100.00;100249.03;5020061;28;20045;-66
2023/03/23 07:39:16;;;;;;;20.10;3.40;;;;;;;12.20;100.00;100240.16;5017762;28;20018;-65
2023/03/23 07:41:41;;;;;;;19.55;2.63;;;;;;;12.20;100.00;100234.88;5026207;28;20497;-65
2023/03/23 07:44:06;;;;;;;14.52;2.80;;;;;;;11.98;100.00;100238.59;5027621;28;20409;-64
2023/03/23 07:46:32;;;;;;;12.20;2.90;;;;;;;12.04;100.00;100246.19;5010890;28;20133;-68
2023/03/23 07:48:58;;;;;;;11.18;2.50;;;;;;;12.21;100.00;100247.16;5018433;28;20345;-67
2023/03/23 07:51:24;;;;;;;14.90;3.15;;;;;;;12.31;100.00;100251.03;5026989;28;20014;-68
2023/03/23 07:53:50;;;;;;;15.43;2.50;;;;;;;12.31;100.00;100248.41;5025539;28;20037;-66
2023/03/23 07:56:18;;;;;;;13.35;2.85;;;;;;;12.56;100.00;100263.00;5008065;28;20036;-67
2023/03/23 07:58:44;;;;;;;10.55;2.22;;;;;;;12.91;100.00;100256.78;5012418;28;20582;-65
2023/03/23 08:01:10;;;;;;;13.68;2.60;;;;;;;12.83;100.00;100267.81;5018022;28;20121;-65
2023/03/23 08:03:35;;;;;;;22.92;3.30;;;;;;;12.83;100.00;100266.94;5027119;28;20030;-68
2023/03/23 08:06:00;;;;;;;11.82;3.33;;;;;;;12.63;100.00;100264.41;5014270;28;20022;-69
2023/03/23 08:08:26;;;;;;;19.13;3.20;;;;;;;12.67;100.00;100265.06;5016246;28;20025;-68
2023/03/23 08:10:51;;;;;;;12.50;2.97;;;;;;;12.76;100.00;100261.09;5015465;28;20128;-66
2023/03/23 08:13:18;;;;;;;18.65;3.30;;;;;;;12.73;100.00;100266.53;5011593;28;20080;-67
2023/03/23 08:15:44;;;;;;;17.25;3.47;;;;;;;12.61;100.00;100266.25;4999355;28;20053;-66
2023/03/23 08:18:10;;;;;;;10.43;2.30;;;;;;;12.68;100.00;100271.22;5014451;28;20108;-67
2023/03/23 08:20:35;;;;;;;12.68;3.58;;;;;;;12.69;100.00;100271.16;4996818;28;20126;-65
2023/03/23 08:23:02;;;;;;;10.57;2.83;;;;;;;12.70;100.00;100274.66;5016452;28;20060;-66
2023/03/23 08:25:29;;;;;;;11.45;2.95;;;;;;;12.69;100.00;100283.50;5017305;28;20026;-65
2023/03/23 08:27:54;;;;;;;12.68;2.72;;;;;;;12.61;100.00;100281.25;4998813;28;20024;-67
2023/03/23 08:30:22;;;;;;;14.73;3.30;;;;;;;12.67;100.00;100283.59;5015853;28;20021;-67
2023/03/23 08:32:47;;;;;;;13.80;3.72;;;;;;;12.68;100.00;100282.66;5011040;28;20072;-66
2023/03/23 08:35:14;;;;;;;12.07;3.20;;;;;;;12.59;100.00;100278.72;4996127;28;20033;-66
2023/03/23 08:37:41;;;;;;;9.65;3.03;;;;;;;12.56;100.00;100284.16;5020086;28;20025;-64
2023/03/23 08:40:09;;;;;;;12.63;3.30;;;;;;;12.81;100.00;100290.81;5016682;28;20029;-66
2023/03/23 08:42:37;;;;;;;19.67;3.38;;;;;;;12.84;100.00;100288.00;5016480;28;20402;-65
2023/03/23 08:45:04;;;;;;;19.27;3.72;;;;;;;12.70;100.00;100307.22;5015333;28;20042;-65
2023/03/23 08:47:29;;;;;;;15.43;3.55;;;;;;;12.74;100.00;100290.25;5017203;28;20056;-67
2023/03/23 08:49:55;;;;;;;22.55;3.45;;;;;;;12.83;100.00;100302.16;5017087;28;20465;-65
2023/03/23 08:52:20;;;;;;;13.52;3.78;;;;;;;12.92;100.00;100310.53;5014701;28;20029;-64
2023/03/23 08:54:47;;;;;;;13.52;3.60;;;;;;;13.08;100.00;100300.88;5015081;28;20041;-65
2023/03/23 08:57:14;;;;;;;23.85;4.22;;;;;;;13.07;100.00;100320.31;5015420;28;20571;-65
2023/03/23 08:59:40;;;;;;;15.07;3.65;;;;;;;12.95;100.00;100310.38;5015567;28;20335;-66
2023/03/23 09:02:06;;;;;;;19.80;3.60;;;;;;;13.00;100.00;100308.34;5015030;28;20410;-65
2023/03/23 09:04:31;;;;;;;15.75;3.63;;;;;;;13.10;100.00;100314.00;5014432;28;20465;-65
2023/03/23 09:06:57;;;;;;;16.45;3.30;;;;;;;13.21;100.00;100295.75;5022660;28;20159;-65
2023/03/23 09:09:23;;;;;;;18.35;3.30;;;;;;;13.21;100.00;100310.78;4999642;28;20384;-65
2023/03/23 09:11:48;;;;;;;15.93;3.60;;;;;;;13.21;100.00;100300.19;5015330;28;20029;-65
2023/03/23 09:14:13;;;;;;;17.60;3.58;;;;;;;13.29;100.00;100299.78;5016614;28;20029;-65
2023/03/23 09:16:39;;;;;;;16.90;3.25;;;;;;;13.32;100.00;100289.91;5006998;28;20030;-66
2023/03/23 09:19:05;;;;;;;14.45;3.78;;;;;;;13.54;100.00;100303.78;4994550;28;20117;-66
2023/03/23 09:21:30;;;;;;;15.90;3.38;;;;;;;13.72;100.00;100293.94;5012616;28;20430;-66
2023/03/23 09:23:58;;;;;;;14.05;3.67;;;;;;;13.65;100.00;100293.44;5010716;28;20034;-67
2023/03/23 09:26:25;;;;;;;13.80;3.08;;;;;;;13.73;100.00;100303.63;5026630;28;20377;-67
2023/03/23 09:28:51;;;;;;;13.70;3.45;;;;;;;13.77;100.00;100306.00;5027713;28;20366;-65
2023/03/23 09:31:20;;;;;;;17.08;3.28;;;;;;;13.92;100.00;100318.47;5026752;28;20036;-67
2023/03/23 09:33:46;;;;;;;13.77;2.60;;;;;;;14.09;100.00;100317.50;5002870;28;20029;-67
2023/03/23 09:36:13;;;;;;;27.15;5.35;;;;;;;13.89;100.00;100322.13;5026383;28;20108;-67
2023/03/23 09:38:41;;;;;;;15.07;2.85;;;;;;;13.89;100.00;100317.72;5007151;28;20022;-66
2023/03/23 09:41:06;;;;;;;14.18;3.35;;;;;;;13.88;100.00;100321.28;5006285;28;20026;-66
2023/03/23 09:43:50;;;;;;;19.35;3.80;;;;;;;13.88;100.00;100309.84;5021046;28;20078;-66
2023/03/23 09:46:35;;;;;;;20.52;3.45;;;;;;;13.78;100.00;100330.69;5026628;28;20026;-65
2023/03/23 09:49:20;;;;;;;17.08;3.20;;;;;;;13.84;100.00;100330.34;5025935;28;20413;-66
2023/03/23 09:52:00;;;;;;;17.38;3.53;;;;;;;13.87;100.00;100338.13;5007559;28;20119;-66
2023/03/23 09:54:28;;;;;;;16.58;3.42;;;;;;;13.96;100.00;100346.47;5009937;28;20034;-66
2023/03/23 09:56:56;;;;;;;14.30;3.50;;;;;;;14.00;100.00;100351.50;5026400;28;20030;-65
2023/03/23 09:59:28;;;;;;;24.90;3.78;;;;;;;14.18;100.00;100338.16;5008592;28;20280;-67
2023/03/23 10:01:59;;;;;;;15.27;2.95;;;;;;;14.24;100.00;100342.28;5026461;28;20090;-66
2023/03/23 10:04:45;;;;;;;14.98;3.10;;;;;;;13.92;100.00;100348.47;5007399;28;20024;-68
2023/03/23 10:07:19;;;;;;;13.38;3.33;;;;;;;14.10;100.00;100351.00;5008414;28;20025;-68
2023/03/23 10:09:47;;;;;;;20.63;3.50;;;;;;;14.16;100.00;100363.91;5010704;28;20046;-66
2023/03/23 10:12:36;;;;;;;14.45;3.22;;;;;;;14.21;100.00;100350.41;5011304;28;20030;-66
2023/03/23 10:15:14;;;;;;;18.45;3.60;;;;;;;14.37;100.00;100359.19;5010128;28;20026;-66
2023/03/23 10:17:51;;;;;;;19.35;3.67;;;;;;;14.27;100.00;100364.13;5010461;28;20025;-69
2023/03/23 10:20:33;;;;;;;20.55;3.65;;;;;;;14.30;100.00;100368.41;4990550;28;20030;-67
2023/03/23 10:23:36;;;;;;;19.70;3.15;;;;;;;14.52;100.00;100372.47;4990679;28;20037;-67
2023/03/23 10:26:10;;;;;;;23.23;3.53;;;;;;;14.65;100.00;100373.47;5011406;28;20048;-66
2023/03/23 10:28:39;;;;;;;22.65;3.83;;;;;;;14.83;99.98;100375.16;5011034;28;20029;-66
2023/03/23 10:31:09;;;;;;;26.15;4.20;;;;;;;14.99;100.00;100375.94;4988913;28;20019;-67
2023/03/23 10:33:44;;;;;;;19.92;3.78;;;;;;;15.24;99.59;100370.94;5001421;28;20026;-67
2023/03/23 10:36:49;;;;;;;19.17;3.67;;;;;;;15.35;97.13;100365.81;5001618;28;20105;-66
2023/03/23 10:39:19;;;;;;;17.58;2.95;;;;;;;14.78;96.56;100359.53;4994570;28;20124;-67
2023/03/23 10:41:45;;;;;;;24.80;3.30;;;;;;;14.74;98.29;100360.59;5010955;28;20029;-70
2023/03/23 10:44:16;;;;;;;15.57;3.67;;;;;;;14.61;99.12;100358.69;5010838;28;20057;-68
2023/03/23 10:46:55;;;;;;;23.70;3.72;;;;;;;14.72;97.71;100365.16;5012235;28;20026;-68
2023/03/23 10:49:23;;;;;;;;;;;;;;;15.04;99.08;100365.06;5009498;28;20041;-66
2023/03/23 10:52:04;;;;;;;18.33;3.95;;;;;;;15.44;94.78;100364.41;5007986;28;19925;-69
2023/03/23 10:54:38;;;;;;;18.38;3.38;;;;;;;15.42;96.59;100374.28;5011474;28;20033;-65
2023/03/23 10:57:33;;;;;;;15.02;3.63;;;;;;;15.39;94.39;100362.03;5011892;28;20061;-67
2023/03/23 11:00:08;;;;;;;21.25;4.03;;;;;;;15.52;95.77;100371.91;4994711;28;20042;-65
2023/03/23 11:02:43;;;;;;;20.83;4.65;;;;;;;15.77;93.71;100343.78;4994056;28;20019;-70
2023/03/23 11:05:24;;;;;;;20.02;3.33;;;;;;;16.02;93.94;100358.19;4995204;28;20064;-70
2023/03/23 11:07:57;;;;;;;18.20;3.08;;;;;;;16.02;92.54;100355.53;5003480;28;20050;-67
2023/03/23 11:10:28;;;;;;;16.75;3.60;;;;;;;15.86;92.96;100356.47;5004207;28;20045;-69
2023/03/23 11:12:58;;;;;;;22.67;4.38;;;;;;;15.70;93.10;100353.94;5011893;28;20052;-67
2023/03/23 11:15:31;;;;;;;13.77;3.65;;;;;;;15.58;91.83;100355.59;5010098;28;20026;-67
2023/03/23 11:18:10;;;;;;;15.45;3.20;;;;;;;15.51;92.01;100363.06;4994966;28;20459;-71
2023/03/23 11:20:41;;;;;;;21.90;3.40;;;;;;;15.35;91.53;100365.81;4991420;28;20084;-69
2023/03/23 11:23:24;;;;;;;13.80;3.35;;;;;;;15.28;93.30;100367.16;5003051;28;20021;-68